Terminal Aerodrome Forecast
Issued by NWS

Home | Current Version | Previous Version | Text Only | Print | Product List | Glossary On
Versions: 1 2 3 4 5 6 7 8 9 10 11 12 13 14 15
000
FTUS42 KMLB 050157 AAA
TAFFPR
TAF AMD
KFPR 050157Z 0502/0524 12005KT P6SM FEW050 SCT100 BKN250
     FM050600 14005KT P6SM FEW035 SCT250
     FM051400 17006KT P6SM SCT025
     FM051600 10009KT P6SM VCTS SCT040CB SCT100 BKN150=

USA.gov is the U.S. government's official web portal to all federal, state and local government web resources and services.